sensor_id;sensor_type;location;lat;lon;timestamp;temperature;humidity
66861;SHT31;53770;42.334;23.550;2022-09-17T00:02:06;16.33;71.11
66861;SHT31;53770;42.334;23.550;2022-09-17T00:04:34;16.36;71.02
66861;SHT31;53770;42.334;23.550;2022-09-17T00:07:01;16.38;70.98
66861;SHT31;53770;42.334;23.550;2022-09-17T00:09:28;16.40;70.89
66861;SHT31;53770;42.334;23.550;2022-09-17T00:11:55;16.45;70.76
66861;SHT31;53770;42.334;23.550;2022-09-17T00:14:22;16.52;70.60
66861;SHT31;53770;42.334;23.550;2022-09-17T00:16:49;16.58;70.48
66861;SHT31;53770;42.334;23.550;2022-09-17T00:19:18;16.59;70.22
66861;SHT31;53770;42.334;23.550;2022-09-17T00:21:46;16.56;70.15
66861;SHT31;53770;42.334;23.550;2022-09-17T00:24:15;16.56;70.35
66861;SHT31;53770;42.334;23.550;2022-09-17T00:26:42;16.51;70.37
66861;SHT31;53770;42.334;23.550;2022-09-17T00:29:09;16.47;70.62
66861;SHT31;53770;42.334;23.550;2022-09-17T00:31:36;16.42;70.79
66861;SHT31;53770;42.334;23.550;2022-09-17T00:34:04;16.31;71.02
66861;SHT31;53770;42.334;23.550;2022-09-17T00:36:33;16.24;71.15
66861;SHT31;53770;42.334;23.550;2022-09-17T00:39:02;16.24;71.09
66861;SHT31;53770;42.334;23.550;2022-09-17T00:41:31;16.25;71.49
66861;SHT31;53770;42.334;23.550;2022-09-17T00:43:59;16.22;71.32
66861;SHT31;53770;42.334;23.550;2022-09-17T00:46:31;16.22;71.43
66861;SHT31;53770;42.334;23.550;2022-09-17T00:49:00;16.25;71.43
66861;SHT31;53770;42.334;23.550;2022-09-17T00:51:32;16.24;71.07
66861;SHT31;53770;42.334;23.550;2022-09-17T00:54:02;16.26;70.87
66861;SHT31;53770;42.334;23.550;2022-09-17T00:56:31;16.28;70.73
66861;SHT31;53770;42.334;23.550;2022-09-17T00:59:00;16.24;70.73
66861;SHT31;53770;42.334;23.550;2022-09-17T01:01:27;16.22;70.99
66861;SHT31;53770;42.334;23.550;2022-09-17T01:03:54;16.20;70.98
66861;SHT31;53770;42.334;23.550;2022-09-17T01:06:24;16.17;71.06
66861;SHT31;53770;42.334;23.550;2022-09-17T01:09:07;16.11;71.14
66861;SHT31;53770;42.334;23.550;2022-09-17T01:11:49;16.13;70.99
66861;SHT31;53770;42.334;23.550;2022-09-17T01:14:28;16.15;70.60
66861;SHT31;53770;42.334;23.550;2022-09-17T01:17:12;16.24;70.36
66861;SHT31;53770;42.334;23.550;2022-09-17T01:19:56;16.22;70.25
66861;SHT31;53770;42.334;23.550;2022-09-17T01:22:33;16.24;70.30
66861;SHT31;53770;42.334;23.550;2022-09-17T01:25:20;16.21;70.14
66861;SHT31;53770;42.334;23.550;2022-09-17T01:28:13;16.18;70.00
66861;SHT31;53770;42.334;23.550;2022-09-17T01:31:02;16.20;69.95
66861;SHT31;53770;42.334;23.550;2022-09-17T01:33:34;16.18;69.90
66861;SHT31;53770;42.334;23.550;2022-09-17T01:36:15;16.20;69.76
66861;SHT31;53770;42.334;23.550;2022-09-17T01:38:46;16.18;69.65
66861;SHT31;53770;42.334;23.550;2022-09-17T01:41:23;16.18;69.59
66861;SHT31;53770;42.334;23.550;2022-09-17T01:43:55;16.17;69.63
66861;SHT31;53770;42.334;23.550;2022-09-17T01:46:29;16.14;69.70
66861;SHT31;53770;42.334;23.550;2022-09-17T01:48:58;16.10;69.71
66861;SHT31;53770;42.334;23.550;2022-09-17T01:51:29;16.10;69.86
66861;SHT31;53770;42.334;23.550;2022-09-17T01:54:01;16.07;70.09
66861;SHT31;53770;42.334;23.550;2022-09-17T01:56:34;15.97;70.36
66861;SHT31;53770;42.334;23.550;2022-09-17T01:59:06;15.93;70.58
66861;SHT31;53770;42.334;23.550;2022-09-17T02:01:38;15.84;70.80
66861;SHT31;53770;42.334;23.550;2022-09-17T02:04:10;15.79;71.11
66861;SHT31;53770;42.334;23.550;2022-09-17T02:06:41;15.77;71.20
66861;SHT31;53770;42.334;23.550;2022-09-17T02:09:13;15.77;71.18
66861;SHT31;53770;42.334;23.550;2022-09-17T02:11:44;15.77;71.51
66861;SHT31;53770;42.334;23.550;2022-09-17T02:14:14;15.80;71.46
66861;SHT31;53770;42.334;23.550;2022-09-17T02:16:46;15.84;71.28
66861;SHT31;53770;42.334;23.550;2022-09-17T02:19:17;15.84;71.09
66861;SHT31;53770;42.334;23.550;2022-09-17T02:21:52;15.90;70.98
66861;SHT31;53770;42.334;23.550;2022-09-17T02:24:23;15.89;70.92
66861;SHT31;53770;42.334;23.550;2022-09-17T02:26:57;15.90;70.77
66861;SHT31;53770;42.334;23.550;2022-09-17T02:29:29;15.91;70.75
66861;SHT31;53770;42.334;23.550;2022-09-17T02:31:59;15.90;70.75
66861;SHT31;53770;42.334;23.550;2022-09-17T02:34:27;15.89;70.66
66861;SHT31;53770;42.334;23.550;2022-09-17T02:36:54;15.90;70.73
66861;SHT31;53770;42.334;23.550;2022-09-17T02:39:21;15.89;70.84
66861;SHT31;53770;42.334;23.550;2022-09-17T02:41:55;15.94;70.90
66861;SHT31;53770;42.334;23.550;2022-09-17T02:44:31;15.98;70.84
66861;SHT31;53770;42.334;23.550;2022-09-17T02:47:21;15.98;70.66
66861;SHT31;53770;42.334;23.550;2022-09-17T02:50:00;15.98;70.62
66861;SHT31;53770;42.334;23.550;2022-09-17T02:52:50;16.01;70.44
66861;SHT31;53770;42.334;23.550;2022-09-17T02:55:25;16.04;70.38
66861;SHT31;53770;42.334;23.550;2022-09-17T02:58:01;16.05;70.35
66861;SHT31;53770;42.334;23.550;2022-09-17T03:00:31;16.04;70.36
66861;SHT31;53770;42.334;23.550;2022-09-17T03:03:02;16.04;70.47
66861;SHT31;53770;42.334;23.550;2022-09-17T03:05:31;16.01;70.39
66861;SHT31;53770;42.334;23.550;2022-09-17T03:08:00;16.01;70.37
66861;SHT31;53770;42.334;23.550;2022-09-17T03:10:26;16.00;70.47
66861;SHT31;53770;42.334;23.550;2022-09-17T03:12:55;15.97;70.53
66861;SHT31;53770;42.334;23.550;2022-09-17T03:15:21;15.93;70.72
66861;SHT31;53770;42.334;23.550;2022-09-17T03:17:48;15.91;70.93
66861;SHT31;53770;42.334;23.550;2022-09-17T03:20:16;15.87;71.03
66861;SHT31;53770;42.334;23.550;2022-09-17T03:22:44;15.83;71.16
66861;SHT31;53770;42.334;23.550;2022-09-17T03:25:11;15.80;71.45
66861;SHT31;53770;42.334;23.550;2022-09-17T03:27:38;15.80;71.57
66861;SHT31;53770;42.334;23.550;2022-09-17T03:30:06;15.79;71.60
66861;SHT31;53770;42.334;23.550;2022-09-17T03:32:32;15.79;71.64
66861;SHT31;53770;42.334;23.550;2022-09-17T03:34:59;15.74;71.78
66861;SHT31;53770;42.334;23.550;2022-09-17T03:37:27;15.76;71.85
66861;SHT31;53770;42.334;23.550;2022-09-17T03:39:55;15.77;71.85
66861;SHT31;53770;42.334;23.550;2022-09-17T03:42:22;15.79;71.82
66861;SHT31;53770;42.334;23.550;2022-09-17T03:44:48;15.82;71.89
66861;SHT31;53770;42.334;23.550;2022-09-17T03:47:15;15.80;71.82
66861;SHT31;53770;42.334;23.550;2022-09-17T03:49:42;15.82;71.85
66861;SHT31;53770;42.334;23.550;2022-09-17T03:52:09;15.84;71.97
66861;SHT31;53770;42.334;23.550;2022-09-17T03:54:37;15.83;72.03
66861;SHT31;53770;42.334;23.550;2022-09-17T03:57:03;15.87;72.16
66861;SHT31;53770;42.334;23.550;2022-09-17T03:59:30;15.87;72.10
66861;SHT31;53770;42.334;23.550;2022-09-17T04:01:57;15.94;71.84
66861;SHT31;53770;42.334;23.550;2022-09-17T04:04:23;16.05;71.67
66861;SHT31;53770;42.334;23.550;2022-09-17T04:06:50;16.10;71.33
66861;SHT31;53770;42.334;23.550;2022-09-17T04:09:17;16.20;71.21
66861;SHT31;53770;42.334;23.550;2022-09-17T04:11:45;16.31;70.95
66861;SHT31;53770;42.334;23.550;2022-09-17T04:14:12;16.40;70.64
66861;SHT31;53770;42.334;23.550;2022-09-17T04:16:39;16.45;70.42
66861;SHT31;53770;42.334;23.550;2022-09-17T04:19:06;16.49;70.40
66861;SHT31;53770;42.334;23.550;2022-09-17T04:21:32;16.49;70.26
66861;SHT31;53770;42.334;23.550;2022-09-17T04:23:59;16.48;70.36
66861;SHT31;53770;42.334;23.550;2022-09-17T04:26:26;16.53;70.49
66861;SHT31;53770;42.334;23.550;2022-09-17T04:28:54;16.58;70.31
66861;SHT31;53770;42.334;23.550;2022-09-17T04:31:21;16.59;70.28
66861;SHT31;53770;42.334;23.550;2022-09-17T04:33:49;16.60;70.30
66861;SHT31;53770;42.334;23.550;2022-09-17T04:36:16;16.65;70.28
66861;SHT31;53770;42.334;23.550;2022-09-17T04:38:43;16.69;70.25
66861;SHT31;53770;42.334;23.550;2022-09-17T04:41:09;16.73;70.23
66861;SHT31;53770;42.334;23.550;2022-09-17T04:43:36;16.79;70.21
66861;SHT31;53770;42.334;23.550;2022-09-17T04:46:04;16.86;70.18
66861;SHT31;53770;42.334;23.550;2022-09-17T04:48:31;16.91;69.92
66861;SHT31;53770;42.334;23.550;2022-09-17T04:50:58;16.97;69.97
66861;SHT31;53770;42.334;23.550;2022-09-17T04:53:24;17.07;70.05
66861;SHT31;53770;42.334;23.550;2022-09-17T04:55:51;17.17;69.72
66861;SHT31;53770;42.334;23.550;2022-09-17T04:58:18;17.23;69.64
66861;SHT31;53770;42.334;23.550;2022-09-17T05:00:45;17.31;69.54
66861;SHT31;53770;42.334;23.550;2022-09-17T05:03:13;17.34;69.55
66861;SHT31;53770;42.334;23.550;2022-09-17T05:05:40;17.35;69.18
66861;SHT31;53770;42.334;23.550;2022-09-17T05:08:06;17.39;69.18
66861;SHT31;53770;42.334;23.550;2022-09-17T05:10:34;17.39;69.26
66861;SHT31;53770;42.334;23.550;2022-09-17T05:13:00;17.46;69.39
66861;SHT31;53770;42.334;23.550;2022-09-17T05:15:27;17.54;69.62
66861;SHT31;53770;42.334;23.550;2022-09-17T05:17:54;17.58;69.84
66861;SHT31;53770;42.334;23.550;2022-09-17T05:20:22;17.72;69.82
66861;SHT31;53770;42.334;23.550;2022-09-17T05:22:50;17.83;69.79
66861;SHT31;53770;42.334;23.550;2022-09-17T05:25:18;17.94;70.19
66861;SHT31;53770;42.334;23.550;2022-09-17T05:27:48;18.07;70.24
66861;SHT31;53770;42.334;23.550;2022-09-17T05:30:15;18.10;71.29
66861;SHT31;53770;42.334;23.550;2022-09-17T05:32:42;18.06;72.27
66861;SHT31;53770;42.334;23.550;2022-09-17T05:35:09;18.07;72.73
66861;SHT31;53770;42.334;23.550;2022-09-17T05:37:38;18.11;72.72
66861;SHT31;53770;42.334;23.550;2022-09-17T05:40:06;18.21;72.77
66861;SHT31;53770;42.334;23.550;2022-09-17T05:42:33;18.31;72.63
66861;SHT31;53770;42.334;23.550;2022-09-17T05:45:00;18.36;72.29
66861;SHT31;53770;42.334;23.550;2022-09-17T05:47:27;18.38;72.70
66861;SHT31;53770;42.334;23.550;2022-09-17T05:49:54;18.44;72.75
66861;SHT31;53770;42.334;23.550;2022-09-17T05:52:20;18.55;72.30
66861;SHT31;53770;42.334;23.550;2022-09-17T05:54:48;18.67;71.97
66861;SHT31;53770;42.334;23.550;2022-09-17T05:57:15;18.76;71.53
66861;SHT31;53770;42.334;23.550;2022-09-17T05:59:42;18.96;71.32
66861;SHT31;53770;42.334;23.550;2022-09-17T06:02:11;19.20;70.63
66861;SHT31;53770;42.334;23.550;2022-09-17T06:04:40;19.47;70.06
66861;SHT31;53770;42.334;23.550;2022-09-17T06:07:07;19.64;69.11
66861;SHT31;53770;42.334;23.550;2022-09-17T06:09:34;19.83;68.72
66861;SHT31;53770;42.334;23.550;2022-09-17T06:12:04;19.98;68.10
66861;SHT31;53770;42.334;23.550;2022-09-17T06:14:31;20.16;67.66
66861;SHT31;53770;42.334;23.550;2022-09-17T06:16:57;20.27;66.75
66861;SHT31;53770;42.334;23.550;2022-09-17T06:19:24;20.23;66.24
66861;SHT31;53770;42.334;23.550;2022-09-17T06:21:51;20.23;66.82
66861;SHT31;53770;42.334;23.550;2022-09-17T06:24:18;20.36;66.85
66861;SHT31;53770;42.334;23.550;2022-09-17T06:26:44;20.51;66.59
66861;SHT31;53770;42.334;23.550;2022-09-17T06:29:13;20.63;66.07
66861;SHT31;53770;42.334;23.550;2022-09-17T06:31:40;20.67;66.03
66861;SHT31;53770;42.334;23.550;2022-09-17T06:34:09;20.58;65.42
66861;SHT31;53770;42.334;23.550;2022-09-17T06:36:35;20.48;65.28
66861;SHT31;53770;42.334;23.550;2022-09-17T06:39:02;20.40;65.53
66861;SHT31;53770;42.334;23.550;2022-09-17T06:41:29;20.34;65.79
66861;SHT31;53770;42.334;23.550;2022-09-17T06:43:56;20.48;65.92
66861;SHT31;53770;42.334;23.550;2022-09-17T06:46:24;20.70;65.75
66861;SHT31;53770;42.334;23.550;2022-09-17T06:48:51;20.99;64.92
66861;SHT31;53770;42.334;23.550;2022-09-17T06:51:17;21.22;64.32
66861;SHT31;53770;42.334;23.550;2022-09-17T06:53:44;21.46;63.98
66861;SHT31;53770;42.334;23.550;2022-09-17T06:56:11;21.70;62.46
66861;SHT31;53770;42.334;23.550;2022-09-17T06:58:38;21.71;60.94
66861;SHT31;53770;42.334;23.550;2022-09-17T07:01:06;21.64;61.36
66861;SHT31;53770;42.334;23.550;2022-09-17T07:03:34;21.57;61.98
66861;SHT31;53770;42.334;23.550;2022-09-17T07:06:02;21.71;62.35
66861;SHT31;53770;42.334;23.550;2022-09-17T07:08:31;21.94;61.72
66861;SHT31;53770;42.334;23.550;2022-09-17T07:10:59;22.04;60.99
66861;SHT31;53770;42.334;23.550;2022-09-17T07:13:26;22.18;60.93
66861;SHT31;53770;42.334;23.550;2022-09-17T07:15:53;22.39;60.78
66861;SHT31;53770;42.334;23.550;2022-09-17T07:18:20;22.56;60.23
66861;SHT31;53770;42.334;23.550;2022-09-17T07:20:53;22.72;58.88
66861;SHT31;53770;42.334;23.550;2022-09-17T07:23:21;22.77;57.58
66861;SHT31;53770;42.334;23.550;2022-09-17T07:25:51;22.89;58.23
66861;SHT31;53770;42.334;23.550;2022-09-17T07:28:18;23.04;58.26
66861;SHT31;53770;42.334;23.550;2022-09-17T07:30:45;23.25;57.71
66861;SHT31;53770;42.334;23.550;2022-09-17T07:33:12;23.44;57.35
66861;SHT31;53770;42.334;23.550;2022-09-17T07:35:39;23.65;56.57
66861;SHT31;53770;42.334;23.550;2022-09-17T07:38:07;23.83;55.95
66861;SHT31;53770;42.334;23.550;2022-09-17T07:40:34;24.02;55.98
66861;SHT31;53770;42.334;23.550;2022-09-17T07:43:00;24.18;55.92
66861;SHT31;53770;42.334;23.550;2022-09-17T07:45:27;24.37;54.95
66861;SHT31;53770;42.334;23.550;2022-09-17T07:47:54;24.45;54.04
66861;SHT31;53770;42.334;23.550;2022-09-17T07:50:20;24.57;53.93
66861;SHT31;53770;42.334;23.550;2022-09-17T07:52:47;24.80;54.38
66861;SHT31;53770;42.334;23.550;2022-09-17T07:55:15;25.09;52.62
66861;SHT31;53770;42.334;23.550;2022-09-17T07:57:42;25.26;53.00
66861;SHT31;53770;42.334;23.550;2022-09-17T08:00:10;25.48;52.11
66861;SHT31;53770;42.334;23.550;2022-09-17T08:02:37;25.68;51.77
66861;SHT31;53770;42.334;23.550;2022-09-17T08:05:04;25.89;51.27
66861;SHT31;53770;42.334;23.550;2022-09-17T08:07:31;26.23;51.27
66861;SHT31;53770;42.334;23.550;2022-09-17T08:09:58;26.61;50.11
66861;SHT31;53770;42.334;23.550;2022-09-17T08:12:27;26.91;49.20
66861;SHT31;53770;42.334;23.550;2022-09-17T08:14:54;27.02;48.38
66861;SHT31;53770;42.334;23.550;2022-09-17T08:17:21;27.03;48.01
66861;SHT31;53770;42.334;23.550;2022-09-17T08:19:47;26.99;47.49
66861;SHT31;53770;42.334;23.550;2022-09-17T08:22:14;26.87;47.11
66861;SHT31;53770;42.334;23.550;2022-09-17T08:24:41;26.80;47.11
66861;SHT31;53770;42.334;23.550;2022-09-17T08:27:07;26.81;47.31
66861;SHT31;53770;42.334;23.550;2022-09-17T08:29:36;27.16;46.72
66861;SHT31;53770;42.334;23.550;2022-09-17T08:32:02;27.61;45.98
66861;SHT31;53770;42.334;23.550;2022-09-17T08:34:29;27.90;45.32
66861;SHT31;53770;42.334;23.550;2022-09-17T08:36:56;27.97;44.56
66861;SHT31;53770;42.334;23.550;2022-09-17T08:39:23;27.74;45.00
66861;SHT31;53770;42.334;23.550;2022-09-17T08:41:54;27.54;45.66
66861;SHT31;53770;42.334;23.550;2022-09-17T08:44:32;27.29;46.25
66861;SHT31;53770;42.334;23.550;2022-09-17T08:47:03;27.15;46.47
66861;SHT31;53770;42.334;23.550;2022-09-17T08:49:40;27.03;47.11
66861;SHT31;53770;42.334;23.550;2022-09-17T08:52:42;26.80;47.87
66861;SHT31;53770;42.334;23.550;2022-09-17T08:55:18;26.29;48.19
66861;SHT31;53770;42.334;23.550;2022-09-17T08:57:53;25.77;49.26
66861;SHT31;53770;42.334;23.550;2022-09-17T09:00:24;25.40;50.57
66861;SHT31;53770;42.334;23.550;2022-09-17T09:03:08;25.05;51.77
66861;SHT31;53770;42.334;23.550;2022-09-17T09:05:41;24.85;53.03
66861;SHT31;53770;42.334;23.550;2022-09-17T09:08:13;24.71;53.28
66861;SHT31;53770;42.334;23.550;2022-09-17T09:10:46;24.59;54.07
66861;SHT31;53770;42.334;23.550;2022-09-17T09:13:18;24.52;54.66
66861;SHT31;53770;42.334;23.550;2022-09-17T09:15:52;24.38;51.82
66861;SHT31;53770;42.334;23.550;2022-09-17T09:18:22;24.28;52.80
66861;SHT31;53770;42.334;23.550;2022-09-17T09:20:52;24.00;46.01
66861;SHT31;53770;42.334;23.550;2022-09-17T09:23:25;23.76;46.74
66861;SHT31;53770;42.334;23.550;2022-09-17T09:26:02;23.61;46.36
66861;SHT31;53770;42.334;23.550;2022-09-17T09:28:38;23.41;47.27
66861;SHT31;53770;42.334;23.550;2022-09-17T09:31:22;23.32;47.72
66861;SHT31;53770;42.334;23.550;2022-09-17T09:33:54;23.14;47.68
66861;SHT31;53770;42.334;23.550;2022-09-17T09:36:21;22.90;48.73
66861;SHT31;53770;42.334;23.550;2022-09-17T09:38:52;22.76;52.90
66861;SHT31;53770;42.334;23.550;2022-09-17T09:41:26;22.63;54.94
66861;SHT31;53770;42.334;23.550;2022-09-17T09:44:00;22.64;56.61
66861;SHT31;53770;42.334;23.550;2022-09-17T09:47:06;22.69;58.45
66861;SHT31;53770;42.334;23.550;2022-09-17T09:49:46;22.66;60.09
66861;SHT31;53770;42.334;23.550;2022-09-17T09:52:27;22.56;61.65
66861;SHT31;53770;42.334;23.550;2022-09-17T09:55:21;22.26;63.95
66861;SHT31;53770;42.334;23.550;2022-09-17T09:57:52;21.36;67.64
66861;SHT31;53770;42.334;23.550;2022-09-17T10:00:26;20.44;71.92
66861;SHT31;53770;42.334;23.550;2022-09-17T10:02:58;19.46;77.01
66861;SHT31;53770;42.334;23.550;2022-09-17T10:05:29;18.68;76.74
66861;SHT31;53770;42.334;23.550;2022-09-17T10:07:56;18.18;79.37
66861;SHT31;53770;42.334;23.550;2022-09-17T10:10:23;17.81;78.84
66861;SHT31;53770;42.334;23.550;2022-09-17T10:13:04;17.38;81.35
66861;SHT31;53770;42.334;23.550;2022-09-17T10:15:30;17.04;84.51
66861;SHT31;53770;42.334;23.550;2022-09-17T10:18:11;16.73;84.42
66861;SHT31;53770;42.334;23.550;2022-09-17T10:20:50;16.56;86.06
66861;SHT31;53770;42.334;23.550;2022-09-17T10:23:18;16.44;84.93
66861;SHT31;53770;42.334;23.550;2022-09-17T10:25:44;16.20;86.33
66861;SHT31;53770;42.334;23.550;2022-09-17T10:28:30;16.21;87.22
66861;SHT31;53770;42.334;23.550;2022-09-17T10:30:59;16.17;88.05
66861;SHT31;53770;42.334;23.550;2022-09-17T10:33:28;16.17;88.19
66861;SHT31;53770;42.334;23.550;2022-09-17T10:36:05;16.20;87.95
66861;SHT31;53770;42.334;23.550;2022-09-17T10:38:36;16.10;87.99
66861;SHT31;53770;42.334;23.550;2022-09-17T10:41:09;16.00;87.13
66861;SHT31;53770;42.334;23.550;2022-09-17T10:43:37;15.89;87.41
66861;SHT31;53770;42.334;23.550;2022-09-17T10:46:07;15.93;88.24
66861;SHT31;53770;42.334;23.550;2022-09-17T10:48:39;16.13;88.81
66861;SHT31;53770;42.334;23.550;2022-09-17T10:51:08;16.38;89.62
66861;SHT31;53770;42.334;23.550;2022-09-17T10:54:03;16.77;90.21
66861;SHT31;53770;42.334;23.550;2022-09-17T10:56:33;17.07;89.95
66861;SHT31;53770;42.334;23.550;2022-09-17T10:59:13;16.97;88.72
66861;SHT31;53770;42.334;23.550;2022-09-17T11:01:58;16.93;88.87
66861;SHT31;53770;42.334;23.550;2022-09-17T11:04:34;16.77;88.64
66861;SHT31;53770;42.334;23.550;2022-09-17T11:07:17;16.76;89.01
66861;SHT31;53770;42.334;23.550;2022-09-17T11:09:52;16.81;89.16
66861;SHT31;53770;42.334;23.550;2022-09-17T11:12:33;16.81;88.85
66861;SHT31;53770;42.334;23.550;2022-09-17T11:15:08;17.03;89.49
66861;SHT31;53770;42.334;23.550;2022-09-17T11:17:50;17.16;88.54
66861;SHT31;53770;42.334;23.550;2022-09-17T11:20:28;17.10;86.56
66861;SHT31;53770;42.334;23.550;2022-09-17T11:23:07;17.07;84.82
66861;SHT31;53770;42.334;23.550;2022-09-17T11:25:45;17.08;83.31
66861;SHT31;53770;42.334;23.550;2022-09-17T11:28:34;17.24;80.06
66861;SHT31;53770;42.334;23.550;2022-09-17T11:31:14;17.46;78.45
66861;SHT31;53770;42.334;23.550;2022-09-17T11:33:53;17.73;76.62
66861;SHT31;53770;42.334;23.550;2022-09-17T11:36:26;17.99;75.11
66861;SHT31;53770;42.334;23.550;2022-09-17T11:38:58;18.31;74.51
66861;SHT31;53770;42.334;23.550;2022-09-17T11:41:38;18.62;72.26
66861;SHT31;53770;42.334;23.550;2022-09-17T11:44:09;18.92;71.14
66861;SHT31;53770;42.334;23.550;2022-09-17T11:46:40;19.10;72.54
66861;SHT31;53770;42.334;23.550;2022-09-17T11:49:14;19.28;74.49
66861;SHT31;53770;42.334;23.550;2022-09-17T11:51:46;19.35;71.92
66861;SHT31;53770;42.334;23.550;2022-09-17T11:54:21;19.31;73.40
66861;SHT31;53770;42.334;23.550;2022-09-17T11:56:51;19.31;74.82
66861;SHT31;53770;42.334;23.550;2022-09-17T11:59:23;19.30;74.83
66861;SHT31;53770;42.334;23.550;2022-09-17T12:01:52;19.28;76.56
66861;SHT31;53770;42.334;23.550;2022-09-17T12:04:40;19.40;76.90
66861;SHT31;53770;42.334;23.550;2022-09-17T12:07:16;19.46;76.59
66861;SHT31;53770;42.334;23.550;2022-09-17T12:09:49;19.53;76.29
66861;SHT31;53770;42.334;23.550;2022-09-17T12:12:18;19.65;73.78
66861;SHT31;53770;42.334;23.550;2022-09-17T12:14:49;19.88;73.17
66861;SHT31;53770;42.334;23.550;2022-09-17T12:17:21;20.06;74.78
66861;SHT31;53770;42.334;23.550;2022-09-17T12:19:51;20.33;77.99
66861;SHT31;53770;42.334;23.550;2022-09-17T12:22:21;20.64;77.95
66861;SHT31;53770;42.334;23.550;2022-09-17T12:24:51;20.90;75.85
66861;SHT31;53770;42.334;23.550;2022-09-17T12:27:37;21.08;74.27
66861;SHT31;53770;42.334;23.550;2022-09-17T12:30:10;21.33;78.14
66861;SHT31;53770;42.334;23.550;2022-09-17T12:32:55;21.80;79.68
66861;SHT31;53770;42.334;23.550;2022-09-17T12:35:34;22.18;79.06
66861;SHT31;53770;42.334;23.550;2022-09-17T12:38:16;22.32;76.27
66861;SHT31;53770;42.334;23.550;2022-09-17T12:40:52;22.38;76.73
66861;SHT31;53770;42.334;23.550;2022-09-17T12:43:36;22.34;72.78
66861;SHT31;53770;42.334;23.550;2022-09-17T12:46:15;22.21;71.69
66861;SHT31;53770;42.334;23.550;2022-09-17T12:48:52;22.01;72.49
66861;SHT31;53770;42.334;23.550;2022-09-17T12:51:37;21.78;73.20
66861;SHT31;53770;42.334;23.550;2022-09-17T12:54:12;21.61;71.94
66861;SHT31;53770;42.334;23.550;2022-09-17T12:56:54;21.54;74.05
66861;SHT31;53770;42.334;23.550;2022-09-17T12:59:28;21.63;75.73
66861;SHT31;53770;42.334;23.550;2022-09-17T13:01:58;21.71;72.19
66861;SHT31;53770;42.334;23.550;2022-09-17T13:04:43;21.66;68.97
66861;SHT31;53770;42.334;23.550;2022-09-17T13:07:42;21.49;69.70
66861;SHT31;53770;42.334;23.550;2022-09-17T13:10:27;21.56;69.39
66861;SHT31;53770;42.334;23.550;2022-09-17T13:13:08;21.70;69.64
66861;SHT31;53770;42.334;23.550;2022-09-17T13:15:52;21.88;73.02
66861;SHT31;53770;42.334;23.550;2022-09-17T13:18:28;22.16;74.60
66861;SHT31;53770;42.334;23.550;2022-09-17T13:20:59;22.38;74.15
66861;SHT31;53770;42.334;23.550;2022-09-17T13:23:31;22.76;72.34
66861;SHT31;53770;42.334;23.550;2022-09-17T13:26:00;22.72;69.27
66861;SHT31;53770;42.334;23.550;2022-09-17T13:28:38;22.70;71.38
66861;SHT31;53770;42.334;23.550;2022-09-17T13:31:04;22.49;70.39
66861;SHT31;53770;42.334;23.550;2022-09-17T13:33:57;22.22;73.63
66861;SHT31;53770;42.334;23.550;2022-09-17T13:36:41;21.87;71.86
66861;SHT31;53770;42.334;23.550;2022-09-17T13:39:10;21.54;72.09
66861;SHT31;53770;42.334;23.550;2022-09-17T13:41:38;21.25;74.76
66861;SHT31;53770;42.334;23.550;2022-09-17T13:44:08;21.03;75.42
66861;SHT31;53770;42.334;23.550;2022-09-17T13:46:37;20.85;76.40
66861;SHT31;53770;42.334;23.550;2022-09-17T13:49:12;20.70;76.74
66861;SHT31;53770;42.334;23.550;2022-09-17T13:51:44;20.58;77.30
66861;SHT31;53770;42.334;23.550;2022-09-17T13:54:12;20.50;78.20
66861;SHT31;53770;42.334;23.550;2022-09-17T13:56:42;20.43;77.31
66861;SHT31;53770;42.334;23.550;2022-09-17T13:59:14;20.41;78.30
66861;SHT31;53770;42.334;23.550;2022-09-17T14:02:01;20.41;78.46
66861;SHT31;53770;42.334;23.550;2022-09-17T14:04:45;20.34;75.55
66861;SHT31;53770;42.334;23.550;2022-09-17T14:07:34;20.30;77.13
66861;SHT31;53770;42.334;23.550;2022-09-17T14:10:34;20.26;77.51
66861;SHT31;53770;42.334;23.550;2022-09-17T14:13:40;20.20;79.32
66861;SHT31;53770;42.334;23.550;2022-09-17T14:16:33;20.06;77.84
66861;SHT31;53770;42.334;23.550;2022-09-17T14:19:27;19.98;75.84
66861;SHT31;53770;42.334;23.550;2022-09-17T14:21:59;19.81;73.01
66861;SHT31;53770;42.334;23.550;2022-09-17T14:24:34;19.67;74.54
66861;SHT31;53770;42.334;23.550;2022-09-17T14:27:12;18.96;76.37
66861;SHT31;53770;42.334;23.550;2022-09-17T14:29:52;18.00;79.75
66861;SHT31;53770;42.334;23.550;2022-09-17T14:32:30;17.18;84.27
66861;SHT31;53770;42.334;23.550;2022-09-17T14:34:59;16.75;87.05
66861;SHT31;53770;42.334;23.550;2022-09-17T14:37:26;16.52;88.02
66861;SHT31;53770;42.334;23.550;2022-09-17T14:39:53;16.45;88.60
66861;SHT31;53770;42.334;23.550;2022-09-17T14:42:23;16.47;89.04
66861;SHT31;53770;42.334;23.550;2022-09-17T14:44:56;16.45;89.32
66861;SHT31;53770;42.334;23.550;2022-09-17T14:47:25;16.31;89.02
66861;SHT31;53770;42.334;23.550;2022-09-17T14:49:52;16.04;88.70
66861;SHT31;53770;42.334;23.550;2022-09-17T14:52:24;15.62;88.98
66861;SHT31;53770;42.334;23.550;2022-09-17T14:55:15;15.48;89.90
66861;SHT31;53770;42.334;23.550;2022-09-17T14:57:44;15.28;89.84
66861;SHT31;53770;42.334;23.550;2022-09-17T15:00:20;15.11;90.69
66861;SHT31;53770;42.334;23.550;2022-09-17T15:02:51;15.24;91.58
66861;SHT31;53770;42.334;23.550;2022-09-17T15:05:25;15.25;91.53
66861;SHT31;53770;42.334;23.550;2022-09-17T15:08:05;15.07;91.39
66861;SHT31;53770;42.334;23.550;2022-09-17T15:10:34;14.97;91.67
66861;SHT31;53770;42.334;23.550;2022-09-17T15:13:01;14.90;91.80
66861;SHT31;53770;42.334;23.550;2022-09-17T15:15:29;14.79;91.82
66861;SHT31;53770;42.334;23.550;2022-09-17T15:17:57;14.76;92.01
66861;SHT31;53770;42.334;23.550;2022-09-17T15:20:27;14.74;92.05
66861;SHT31;53770;42.334;23.550;2022-09-17T15:23:07;14.70;92.14
66861;SHT31;53770;42.334;23.550;2022-09-17T15:25:45;14.73;92.17
66861;SHT31;53770;42.334;23.550;2022-09-17T15:28:22;14.79;92.33
66861;SHT31;53770;42.334;23.550;2022-09-17T15:30:51;14.80;92.41
66861;SHT31;53770;42.334;23.550;2022-09-17T15:33:19;14.77;92.39
66861;SHT31;53770;42.334;23.550;2022-09-17T15:35:58;14.73;92.45
66861;SHT31;53770;42.334;23.550;2022-09-17T15:38:27;14.77;92.47
66861;SHT31;53770;42.334;23.550;2022-09-17T15:40:54;14.76;92.40
66861;SHT31;53770;42.334;23.550;2022-09-17T15:43:25;14.71;92.35
66861;SHT31;53770;42.334;23.550;2022-09-17T15:45:52;14.70;92.42